sensor_id;sensor_type;location;lat;lon;timestamp;temperature;humidity
18741;DHT22;9499;52.472;13.448;2023-03-01T00:01:08;1.20;1.00
18741;DHT22;9499;52.472;13.448;2023-03-01T00:03:36;1.20;1.00
18741;DHT22;9499;52.472;13.448;2023-03-01T00:06:04;1.10;1.00
18741;DHT22;9499;52.472;13.448;2023-03-01T00:08:31;1.10;1.00
18741;DHT22;9499;52.472;13.448;2023-03-01T00:11:03;1.10;1.00
18741;DHT22;9499;52.472;13.448;2023-03-01T00:13:30;1.10;75.90
18741;DHT22;9499;52.472;13.448;2023-03-01T00:15:57;1.00;16.90
18741;DHT22;9499;52.472;13.448;2023-03-01T00:18:24;1.00;99.90
18741;DHT22;9499;52.472;13.448;2023-03-01T00:20:54;1.00;99.90
18741;DHT22;9499;52.472;13.448;2023-03-01T00:23:22;1.00;84.10
18741;DHT22;9499;52.472;13.448;2023-03-01T00:25:49;1.00;99.90
18741;DHT22;9499;52.472;13.448;2023-03-01T00:28:16;1.00;1.00
18741;DHT22;9499;52.472;13.448;2023-03-01T00:30:44;1.00;1.00
18741;DHT22;9499;52.472;13.448;2023-03-01T00:33:11;1.00;99.90
18741;DHT22;9499;52.472;13.448;2023-03-01T00:35:38;1.00;99.90
18741;DHT22;9499;52.472;13.448;2023-03-01T00:38:06;1.00;1.00
18741;DHT22;9499;52.472;13.448;2023-03-01T00:40:34;0.90;1.00
18741;DHT22;9499;52.472;13.448;2023-03-01T00:43:02;0.90;1.00
18741;DHT22;9499;52.472;13.448;2023-03-01T00:45:33;0.90;1.00
18741;DHT22;9499;52.472;13.448;2023-03-01T00:47:59;0.90;1.00
18741;DHT22;9499;52.472;13.448;2023-03-01T00:50:26;0.90;1.00
18741;DHT22;9499;52.472;13.448;2023-03-01T00:52:54;0.90;99.90
18741;DHT22;9499;52.472;13.448;2023-03-01T00:55:23;0.90;1.00
18741;DHT22;9499;52.472;13.448;2023-03-01T00:57:50;0.90;1.00
18741;DHT22;9499;52.472;13.448;2023-03-01T01:00:18;0.80;1.00
18741;DHT22;9499;52.472;13.448;2023-03-01T01:02:45;0.80;1.00
18741;DHT22;9499;52.472;13.448;2023-03-01T01:05:12;0.80;1.00
18741;DHT22;9499;52.472;13.448;2023-03-01T01:07:39;0.80;1.00
18741;DHT22;9499;52.472;13.448;2023-03-01T01:10:06;0.80;1.00
18741;DHT22;9499;52.472;13.448;2023-03-01T01:12:44;0.70;1.00
18741;DHT22;9499;52.472;13.448;2023-03-01T01:15:13;0.70;14.00
18741;DHT22;9499;52.472;13.448;2023-03-01T01:17:42;0.70;99.90
18741;DHT22;9499;52.472;13.448;2023-03-01T01:20:11;0.70;99.90
18741;DHT22;9499;52.472;13.448;2023-03-01T01:22:38;0.70;99.90
18741;DHT22;9499;52.472;13.448;2023-03-01T01:25:05;0.70;99.90
18741;DHT22;9499;52.472;13.448;2023-03-01T01:27:32;0.60;99.90
18741;DHT22;9499;52.472;13.448;2023-03-01T01:30:00;0.70;99.90
18741;DHT22;9499;52.472;13.448;2023-03-01T01:32:26;0.70;1.00
18741;DHT22;9499;52.472;13.448;2023-03-01T01:34:53;0.60;48.20
18741;DHT22;9499;52.472;13.448;2023-03-01T01:37:20;0.60;99.90
18741;DHT22;9499;52.472;13.448;2023-03-01T01:39:46;0.60;99.90
18741;DHT22;9499;52.472;13.448;2023-03-01T01:42:16;0.60;99.90
18741;DHT22;9499;52.472;13.448;2023-03-01T01:44:46;0.50;99.90
18741;DHT22;9499;52.472;13.448;2023-03-01T01:47:16;0.60;1.00
18741;DHT22;9499;52.472;13.448;2023-03-01T01:49:47;0.60;1.00
18741;DHT22;9499;52.472;13.448;2023-03-01T01:52:18;0.60;99.90
18741;DHT22;9499;52.472;13.448;2023-03-01T01:54:49;0.50;99.90
18741;DHT22;9499;52.472;13.448;2023-03-01T01:57:22;0.50;99.90
18741;DHT22;9499;52.472;13.448;2023-03-01T01:59:52;0.50;99.90
18741;DHT22;9499;52.472;13.448;2023-03-01T02:02:21;0.40;99.90
18741;DHT22;9499;52.472;13.448;2023-03-01T02:04:48;0.40;1.00
18741;DHT22;9499;52.472;13.448;2023-03-01T02:07:18;0.40;1.00
18741;DHT22;9499;52.472;13.448;2023-03-01T02:09:47;0.40;1.00
18741;DHT22;9499;52.472;13.448;2023-03-01T02:12:14;0.30;1.00
18741;DHT22;9499;52.472;13.448;2023-03-01T02:14:42;0.30;1.00
18741;DHT22;9499;52.472;13.448;2023-03-01T02:17:09;0.20;99.90
18741;DHT22;9499;52.472;13.448;2023-03-01T02:19:47;0.20;1.00
18741;DHT22;9499;52.472;13.448;2023-03-01T02:22:20;0.20;1.00
18741;DHT22;9499;52.472;13.448;2023-03-01T02:24:55;0.20;1.00
18741;DHT22;9499;52.472;13.448;2023-03-01T02:27:32;0.20;1.00
18741;DHT22;9499;52.472;13.448;2023-03-01T02:30:01;0.20;1.00
18741;DHT22;9499;52.472;13.448;2023-03-01T02:32:27;0.10;1.00
18741;DHT22;9499;52.472;13.448;2023-03-01T02:34:54;0.20;1.00
18741;DHT22;9499;52.472;13.448;2023-03-01T02:37:22;0.20;1.00
18741;DHT22;9499;52.472;13.448;2023-03-01T02:39:55;0.10;99.90
18741;DHT22;9499;52.472;13.448;2023-03-01T02:42:26;0.10;99.90
18741;DHT22;9499;52.472;13.448;2023-03-01T02:44:54;0.10;99.90
18741;DHT22;9499;52.472;13.448;2023-03-01T02:47:22;0.10;99.90
18741;DHT22;9499;52.472;13.448;2023-03-01T02:49:49;0.10;99.90
18741;DHT22;9499;52.472;13.448;2023-03-01T02:52:36;0.10;99.90
18741;DHT22;9499;52.472;13.448;2023-03-01T02:55:06;0.10;99.90
18741;DHT22;9499;52.472;13.448;2023-03-01T02:57:38;0.00;99.90
18741;DHT22;9499;52.472;13.448;2023-03-01T03:00:09;0.00;99.90
18741;DHT22;9499;52.472;13.448;2023-03-01T03:02:40;0.00;99.90
18741;DHT22;9499;52.472;13.448;2023-03-01T03:05:09;0.00;99.90
18741;DHT22;9499;52.472;13.448;2023-03-01T03:07:38;0.00;99.90
18741;DHT22;9499;52.472;13.448;2023-03-01T03:10:07;-0.10;99.90
18741;DHT22;9499;52.472;13.448;2023-03-01T03:12:36;-0.10;99.90
18741;DHT22;9499;52.472;13.448;2023-03-01T03:15:04;-0.10;1.00
18741;DHT22;9499;52.472;13.448;2023-03-01T03:17:34;-0.10;1.00
18741;DHT22;9499;52.472;13.448;2023-03-01T03:20:04;-0.20;1.00
18741;DHT22;9499;52.472;13.448;2023-03-01T03:22:31;-0.30;1.00
18741;DHT22;9499;52.472;13.448;2023-03-01T03:24:59;-0.30;1.00
18741;DHT22;9499;52.472;13.448;2023-03-01T03:27:26;-0.30;1.00
18741;DHT22;9499;52.472;13.448;2023-03-01T03:29:53;-0.30;1.00
18741;DHT22;9499;52.472;13.448;2023-03-01T03:32:20;-0.20;1.00
18741;DHT22;9499;52.472;13.448;2023-03-01T03:34:46;-0.20;3.30
18741;DHT22;9499;52.472;13.448;2023-03-01T03:37:15;-0.20;10.10
18741;DHT22;9499;52.472;13.448;2023-03-01T03:39:56;-0.20;1.00
18741;DHT22;9499;52.472;13.448;2023-03-01T03:42:23;-0.20;17.60
18741;DHT22;9499;52.472;13.448;2023-03-01T03:44:50;-0.20;15.10
18741;DHT22;9499;52.472;13.448;2023-03-01T03:47:17;-0.20;1.00
18741;DHT22;9499;52.472;13.448;2023-03-01T03:49:43;-0.20;1.00
18741;DHT22;9499;52.472;13.448;2023-03-01T03:52:10;-0.30;1.00
18741;DHT22;9499;52.472;13.448;2023-03-01T03:54:40;-0.30;1.00
18741;DHT22;9499;52.472;13.448;2023-03-01T03:57:06;-0.40;1.00
18741;DHT22;9499;52.472;13.448;2023-03-01T03:59:33;-0.40;1.00
18741;DHT22;9499;52.472;13.448;2023-03-01T04:02:00;-0.40;48.10
18741;DHT22;9499;52.472;13.448;2023-03-01T04:04:26;-0.40;99.90
18741;DHT22;9499;52.472;13.448;2023-03-01T04:06:53;-0.40;2.70
18741;DHT22;9499;52.472;13.448;2023-03-01T04:09:19;-0.50;6.70
18741;DHT22;9499;52.472;13.448;2023-03-01T04:11:47;-0.50;99.90
18741;DHT22;9499;52.472;13.448;2023-03-01T04:14:14;-0.50;99.90
18741;DHT22;9499;52.472;13.448;2023-03-01T04:16:40;-0.50;99.90
18741;DHT22;9499;52.472;13.448;2023-03-01T04:19:07;-0.50;99.90
18741;DHT22;9499;52.472;13.448;2023-03-01T04:21:35;-0.60;99.90
18741;DHT22;9499;52.472;13.448;2023-03-01T04:24:06;-0.60;99.90
18741;DHT22;9499;52.472;13.448;2023-03-01T04:26:34;-0.60;99.90
18741;DHT22;9499;52.472;13.448;2023-03-01T04:29:02;-0.50;99.90
18741;DHT22;9499;52.472;13.448;2023-03-01T04:31:28;-0.60;99.90
18741;DHT22;9499;52.472;13.448;2023-03-01T04:33:57;-0.50;99.90
18741;DHT22;9499;52.472;13.448;2023-03-01T04:36:27;-0.50;1.00
18741;DHT22;9499;52.472;13.448;2023-03-01T04:38:54;-0.50;1.00
18741;DHT22;9499;52.472;13.448;2023-03-01T04:41:24;-0.50;1.00
18741;DHT22;9499;52.472;13.448;2023-03-01T04:43:51;-0.50;4.40
18741;DHT22;9499;52.472;13.448;2023-03-01T04:46:20;-0.60;72.30
18741;DHT22;9499;52.472;13.448;2023-03-01T04:48:47;-0.60;99.90
18741;DHT22;9499;52.472;13.448;2023-03-01T04:51:14;-0.70;99.90
18741;DHT22;9499;52.472;13.448;2023-03-01T04:53:42;-0.70;99.90
18741;DHT22;9499;52.472;13.448;2023-03-01T04:56:09;-0.70;99.90
18741;DHT22;9499;52.472;13.448;2023-03-01T04:58:44;-0.70;99.90
18741;DHT22;9499;52.472;13.448;2023-03-01T05:01:13;-0.60;99.90
18741;DHT22;9499;52.472;13.448;2023-03-01T05:03:48;-0.60;99.90
18741;DHT22;9499;52.472;13.448;2023-03-01T05:06:16;-0.70;99.90
18741;DHT22;9499;52.472;13.448;2023-03-01T05:08:43;-0.70;99.90
18741;DHT22;9499;52.472;13.448;2023-03-01T05:11:10;-0.80;1.00
18741;DHT22;9499;52.472;13.448;2023-03-01T05:13:38;-0.80;1.00
18741;DHT22;9499;52.472;13.448;2023-03-01T05:16:07;-0.80;1.00
18741;DHT22;9499;52.472;13.448;2023-03-01T05:18:37;-0.70;1.00
18741;DHT22;9499;52.472;13.448;2023-03-01T05:21:07;-0.70;1.00
18741;DHT22;9499;52.472;13.448;2023-03-01T05:23:34;-0.70;1.00
18741;DHT22;9499;52.472;13.448;2023-03-01T05:26:03;-0.70;1.00
18741;DHT22;9499;52.472;13.448;2023-03-01T05:28:36;-0.80;1.00
18741;DHT22;9499;52.472;13.448;2023-03-01T05:31:03;-0.80;1.00
18741;DHT22;9499;52.472;13.448;2023-03-01T05:33:38;-0.80;1.00
18741;DHT22;9499;52.472;13.448;2023-03-01T05:36:07;-0.80;1.00
18741;DHT22;9499;52.472;13.448;2023-03-01T05:38:37;-0.70;1.00
18741;DHT22;9499;52.472;13.448;2023-03-01T05:41:04;-0.70;1.00
18741;DHT22;9499;52.472;13.448;2023-03-01T05:43:33;-0.70;1.00
18741;DHT22;9499;52.472;13.448;2023-03-01T05:46:04;-0.70;1.00
18741;DHT22;9499;52.472;13.448;2023-03-01T05:48:31;-0.70;1.00
18741;DHT22;9499;52.472;13.448;2023-03-01T05:50:59;-0.80;1.00
18741;DHT22;9499;52.472;13.448;2023-03-01T05:53:30;-0.80;1.00
18741;DHT22;9499;52.472;13.448;2023-03-01T05:55:57;-0.80;1.00
18741;DHT22;9499;52.472;13.448;2023-03-01T05:58:24;-0.80;5.20
18741;DHT22;9499;52.472;13.448;2023-03-01T06:00:50;-0.80;99.90
18741;DHT22;9499;52.472;13.448;2023-03-01T06:03:19;-0.80;99.90
18741;DHT22;9499;52.472;13.448;2023-03-01T06:05:46;-0.80;99.90
18741;DHT22;9499;52.472;13.448;2023-03-01T06:08:13;-0.70;99.90
18741;DHT22;9499;52.472;13.448;2023-03-01T06:10:41;-0.70;17.70
18741;DHT22;9499;52.472;13.448;2023-03-01T06:13:07;-0.70;1.00
18741;DHT22;9499;52.472;13.448;2023-03-01T06:15:34;-0.60;1.00
18741;DHT22;9499;52.472;13.448;2023-03-01T06:18:01;-0.60;1.00
18741;DHT22;9499;52.472;13.448;2023-03-01T06:20:28;-0.60;1.00
18741;DHT22;9499;52.472;13.448;2023-03-01T06:22:56;-0.60;1.00
18741;DHT22;9499;52.472;13.448;2023-03-01T06:25:26;-0.50;1.00
18741;DHT22;9499;52.472;13.448;2023-03-01T06:27:55;-0.50;1.00
18741;DHT22;9499;52.472;13.448;2023-03-01T06:30:23;-0.50;1.00
18741;DHT22;9499;52.472;13.448;2023-03-01T06:32:50;-0.50;1.00
18741;DHT22;9499;52.472;13.448;2023-03-01T06:35:17;-0.50;1.00
18741;DHT22;9499;52.472;13.448;2023-03-01T06:37:44;-0.50;1.00
18741;DHT22;9499;52.472;13.448;2023-03-01T06:40:12;-0.50;1.00
18741;DHT22;9499;52.472;13.448;2023-03-01T06:42:41;-0.50;1.00
18741;DHT22;9499;52.472;13.448;2023-03-01T06:45:11;-0.50;1.00
18741;DHT22;9499;52.472;13.448;2023-03-01T06:47:38;-0.40;1.00
18741;DHT22;9499;52.472;13.448;2023-03-01T06:50:05;-0.40;1.00
18741;DHT22;9499;52.472;13.448;2023-03-01T06:52:32;-0.40;1.00
18741;DHT22;9499;52.472;13.448;2023-03-01T06:54:58;-0.30;1.00
18741;DHT22;9499;52.472;13.448;2023-03-01T06:57:26;-0.30;1.00
18741;DHT22;9499;52.472;13.448;2023-03-01T06:59:52;-0.30;1.00
18741;DHT22;9499;52.472;13.448;2023-03-01T07:02:20;-0.30;1.00
18741;DHT22;9499;52.472;13.448;2023-03-01T07:04:48;-0.20;1.00
18741;DHT22;9499;52.472;13.448;2023-03-01T07:07:15;-0.10;1.00
18741;DHT22;9499;52.472;13.448;2023-03-01T07:09:43;0.00;1.00
18741;DHT22;9499;52.472;13.448;2023-03-01T07:12:09;0.00;1.00
18741;DHT22;9499;52.472;13.448;2023-03-01T07:14:39;0.10;1.00
18741;DHT22;9499;52.472;13.448;2023-03-01T07:17:06;0.10;1.00
18741;DHT22;9499;52.472;13.448;2023-03-01T07:19:36;0.20;1.00
18741;DHT22;9499;52.472;13.448;2023-03-01T07:22:03;0.20;1.00
18741;DHT22;9499;52.472;13.448;2023-03-01T07:24:33;0.30;1.00
18741;DHT22;9499;52.472;13.448;2023-03-01T07:26:59;0.40;1.00
18741;DHT22;9499;52.472;13.448;2023-03-01T07:29:26;0.40;1.00
18741;DHT22;9499;52.472;13.448;2023-03-01T07:31:54;0.50;1.00
18741;DHT22;9499;52.472;13.448;2023-03-01T07:34:21;0.60;1.00
18741;DHT22;9499;52.472;13.448;2023-03-01T07:36:49;0.70;99.90
18741;DHT22;9499;52.472;13.448;2023-03-01T07:39:17;0.70;99.90
18741;DHT22;9499;52.472;13.448;2023-03-01T07:41:44;0.80;99.90
18741;DHT22;9499;52.472;13.448;2023-03-01T07:44:11;0.80;1.00
18741;DHT22;9499;52.472;13.448;2023-03-01T07:46:37;1.00;1.00
18741;DHT22;9499;52.472;13.448;2023-03-01T07:49:11;1.00;1.00
18741;DHT22;9499;52.472;13.448;2023-03-01T07:51:38;1.10;1.00
18741;DHT22;9499;52.472;13.448;2023-03-01T07:54:08;1.20;1.00
18741;DHT22;9499;52.472;13.448;2023-03-01T07:56:35;1.30;99.90
18741;DHT22;9499;52.472;13.448;2023-03-01T07:59:13;1.40;90.20
18741;DHT22;9499;52.472;13.448;2023-03-01T08:01:43;1.50;1.00
18741;DHT22;9499;52.472;13.448;2023-03-01T08:04:10;1.50;1.00
18741;DHT22;9499;52.472;13.448;2023-03-01T08:06:37;1.60;1.00
18741;DHT22;9499;52.472;13.448;2023-03-01T08:09:03;1.60;99.90
18741;DHT22;9499;52.472;13.448;2023-03-01T08:11:31;1.70;1.00
18741;DHT22;9499;52.472;13.448;2023-03-01T08:13:58;1.80;1.00
18741;DHT22;9499;52.472;13.448;2023-03-01T08:16:24;2.00;99.90
18741;DHT22;9499;52.472;13.448;2023-03-01T08:18:51;2.00;99.90
18741;DHT22;9499;52.472;13.448;2023-03-01T08:21:18;2.10;1.00
18741;DHT22;9499;52.472;13.448;2023-03-01T08:23:47;2.20;1.00
18741;DHT22;9499;52.472;13.448;2023-03-01T08:26:16;2.20;1.00
18741;DHT22;9499;52.472;13.448;2023-03-01T08:28:45;2.30;1.00
18741;DHT22;9499;52.472;13.448;2023-03-01T08:31:16;2.40;1.00
18741;DHT22;9499;52.472;13.448;2023-03-01T08:33:45;2.50;1.00
18741;DHT22;9499;52.472;13.448;2023-03-01T08:36:19;2.60;1.00
18741;DHT22;9499;52.472;13.448;2023-03-01T08:38:52;2.60;1.00
18741;DHT22;9499;52.472;13.448;2023-03-01T08:41:19;2.70;1.00
18741;DHT22;9499;52.472;13.448;2023-03-01T08:43:47;2.70;99.90
18741;DHT22;9499;52.472;13.448;2023-03-01T08:46:14;2.80;1.00
18741;DHT22;9499;52.472;13.448;2023-03-01T08:48:41;2.80;1.00
18741;DHT22;9499;52.472;13.448;2023-03-01T08:51:16;2.80;99.90
18741;DHT22;9499;52.472;13.448;2023-03-01T08:53:43;3.00;99.90
18741;DHT22;9499;52.472;13.448;2023-03-01T08:56:11;3.10;99.90
18741;DHT22;9499;52.472;13.448;2023-03-01T08:58:37;3.10;1.00
18741;DHT22;9499;52.472;13.448;2023-03-01T09:01:08;3.30;1.00
18741;DHT22;9499;52.472;13.448;2023-03-01T09:03:43;3.30;1.00
18741;DHT22;9499;52.472;13.448;2023-03-01T09:06:10;3.40;1.00
18741;DHT22;9499;52.472;13.448;2023-03-01T09:08:39;3.50;99.90
18741;DHT22;9499;52.472;13.448;2023-03-01T09:11:07;3.60;99.90
18741;DHT22;9499;52.472;13.448;2023-03-01T09:13:34;3.70;1.00
18741;DHT22;9499;52.472;13.448;2023-03-01T09:16:03;3.70;1.00
18741;DHT22;9499;52.472;13.448;2023-03-01T09:18:33;3.80;99.90
18741;DHT22;9499;52.472;13.448;2023-03-01T09:21:04;3.80;99.90
18741;DHT22;9499;52.472;13.448;2023-03-01T09:23:32;3.70;99.90
18741;DHT22;9499;52.472;13.448;2023-03-01T09:25:59;3.70;99.90
18741;DHT22;9499;52.472;13.448;2023-03-01T09:28:26;3.70;99.90
18741;DHT22;9499;52.472;13.448;2023-03-01T09:30:52;3.80;99.90
18741;DHT22;9499;52.472;13.448;2023-03-01T09:33:19;3.90;99.90
18741;DHT22;9499;52.472;13.448;2023-03-01T09:35:47;4.00;99.90
18741;DHT22;9499;52.472;13.448;2023-03-01T09:38:13;4.10;99.90
18741;DHT22;9499;52.472;13.448;2023-03-01T09:40:44;4.20;99.90
18741;DHT22;9499;52.472;13.448;2023-03-01T09:43:19;4.30;99.90
18741;DHT22;9499;52.472;13.448;2023-03-01T09:45:48;4.40;59.60
18741;DHT22;9499;52.472;13.448;2023-03-01T09:48:18;4.40;1.00
18741;DHT22;9499;52.472;13.448;2023-03-01T09:50:48;4.40;1.00
18741;DHT22;9499;52.472;13.448;2023-03-01T09:53:17;4.60;1.00
18741;DHT22;9499;52.472;13.448;2023-03-01T09:55:45;4.70;1.00
18741;DHT22;9499;52.472;13.448;2023-03-01T09:58:29;4.70;1.00
18741;DHT22;9499;52.472;13.448;2023-03-01T10:00:59;4.80;1.00
18741;DHT22;9499;52.472;13.448;2023-03-01T10:03:41;4.90;1.00
18741;DHT22;9499;52.472;13.448;2023-03-01T10:06:14;4.90;1.00
18741;DHT22;9499;52.472;13.448;2023-03-01T10:08:50;5.00;1.00
18741;DHT22;9499;52.472;13.448;2023-03-01T10:11:26;5.20;1.00
18741;DHT22;9499;52.472;13.448;2023-03-01T10:13:58;5.80;10.70
18741;DHT22;9499;52.472;13.448;2023-03-01T10:16:31;6.20;99.90
18741;DHT22;9499;52.472;13.448;2023-03-01T10:19:03;6.60;99.90
18741;DHT22;9499;52.472;13.448;2023-03-01T10:21:44;6.90;99.90
18741;DHT22;9499;52.472;13.448;2023-03-01T10:24:14;7.40;99.90
18741;DHT22;9499;52.472;13.448;2023-03-01T10:26:52;7.80;99.90
18741;DHT22;9499;52.472;13.448;2023-03-01T10:29:24;8.10;99.90
18741;DHT22;9499;52.472;13.448;2023-03-01T10:31:53;8.40;99.90
18741;DHT22;9499;52.472;13.448;2023-03-01T10:37:09;8.70;99.90
18741;DHT22;9499;52.472;13.448;2023-03-01T10:39:36;8.60;99.90
18741;DHT22;9499;52.472;13.448;2023-03-01T10:42:05;8.60;99.90
18741;DHT22;9499;52.472;13.448;2023-03-01T10:44:37;8.80;99.90
18741;DHT22;9499;52.472;13.448;2023-03-01T10:47:04;8.90;99.90
18741;DHT22;9499;52.472;13.448;2023-03-01T10:49:31;9.10;99.90
18741;DHT22;9499;52.472;13.448;2023-03-01T10:52:15;9.20;99.90
18741;DHT22;9499;52.472;13.448;2023-03-01T10:54:51;8.90;99.90
18741;DHT22;9499;52.472;13.448;2023-03-01T10:57:29;8.80;99.90
18741;DHT22;9499;52.472;13.448;2023-03-01T11:00:09;8.90;99.90
18741;DHT22;9499;52.472;13.448;2023-03-01T11:02:40;8.60;99.60
18741;DHT22;9499;52.472;13.448;2023-03-01T11:05:17;8.50;94.70
18741;DHT22;9499;52.472;13.448;2023-03-01T11:07:50;8.60;99.90
18741;DHT22;9499;52.472;13.448;2023-03-01T11:10:18;8.90;99.90
18741;DHT22;9499;52.472;13.448;2023-03-01T11:12:45;9.20;99.90
18741;DHT22;9499;52.472;13.448;2023-03-01T11:15:22;9.30;94.20
18741;DHT22;9499;52.472;13.448;2023-03-01T11:17:49;9.30;94.80
18741;DHT22;9499;52.472;13.448;2023-03-01T11:20:24;9.50;94.00
18741;DHT22;9499;52.472;13.448;2023-03-01T11:22:54;9.60;85.80
18741;DHT22;9499;52.472;13.448;2023-03-01T11:25:24;9.70;73.60
18741;DHT22;9499;52.472;13.448;2023-03-01T11:27:52;9.80;66.60
18741;DHT22;9499;52.472;13.448;2023-03-01T11:30:22;9.80;47.00
18741;DHT22;9499;52.472;13.448;2023-03-01T11:32:56;10.00;46.00
18741;DHT22;9499;52.472;13.448;2023-03-01T11:35:28;10.30;31.70
18741;DHT22;9499;52.472;13.448;2023-03-01T11:38:05;10.60;84.60
18741;DHT22;9499;52.472;13.448;2023-03-01T11:40:37;10.50;92.80
18741;DHT22;9499;52.472;13.448;2023-03-01T11:43:14;10.50;83.00
18741;DHT22;9499;52.472;13.448;2023-03-01T11:45:52;10.70;90.30
18741;DHT22;9499;52.472;13.448;2023-03-01T11:48:37;10.90;1.00
18741;DHT22;9499;52.472;13.448;2023-03-01T11:51:10;10.30;91.00
18741;DHT22;9499;52.472;13.448;2023-03-01T11:53:53;10.20;93.80
18741;DHT22;9499;52.472;13.448;2023-03-01T11:56:28;10.30;32.40
18741;DHT22;9499;52.472;13.448;2023-03-01T11:59:13;10.40;99.90
18741;DHT22;9499;52.472;13.448;2023-03-01T12:01:51;10.60;33.20
18741;DHT22;9499;52.472;13.448;2023-03-01T12:04:42;10.80;99.60
18741;DHT22;9499;52.472;13.448;2023-03-01T12:07:19;11.10;99.90
18741;DHT22;9499;52.472;13.448;2023-03-01T12:10:02;11.30;99.90
18741;DHT22;9499;52.472;13.448;2023-03-01T12:12:46;11.50;99.90
18741;DHT22;9499;52.472;13.448;2023-03-01T12:15:37;11.60;99.90
18741;DHT22;9499;52.472;13.448;2023-03-01T12:18:21;11.70;99.90
18741;DHT22;9499;52.472;13.448;2023-03-01T12:20:56;11.90;99.90
18741;DHT22;9499;52.472;13.448;2023-03-01T12:26:47;12.20;99.90
18741;DHT22;9499;52.472;13.448;2023-03-01T12:29:24;12.20;99.90
18741;DHT22;9499;52.472;13.448;2023-03-01T12:32:10;12.10;99.90
18741;DHT22;9499;52.472;13.448;2023-03-01T12:35:10;11.90;99.90
18741;DHT22;9499;52.472;13.448;2023-03-01T12:37:54;12.00;99.90
18741;DHT22;9499;52.472;13.448;2023-03-01T12:40:29;11.90;99.90
18741;DHT22;9499;52.472;13.448;2023-03-01T12:43:08;12.00;99.90
18741;DHT22;9499;52.472;13.448;2023-03-01T12:45:48;12.20;99.90
18741;DHT22;9499;52.472;13.448;2023-03-01T12:48:25;12.30;99.90
18741;DHT22;9499;52.472;13.448;2023-03-01T12:50:59;12.50;99.90
18741;DHT22;9499;52.472;13.448;2023-03-01T12:53:29;12.60;99.90
18741;DHT22;9499;52.472;13.448;2023-03-01T12:56:00;12.70;99.90
18741;DHT22;9499;52.472;13.448;2023-03-01T12:58:31;12.50;99.90
18741;DHT22;9499;52.472;13.448;2023-03-01T13:01:05;12.30;99.90
18741;DHT22;9499;52.472;13.448;2023-03-01T13:03:52;12.30;99.90
18741;DHT22;9499;52.472;13.448;2023-03-01T13:06:29;12.30;99.90
18741;DHT22;9499;52.472;13.448;2023-03-01T13:09:07;12.40;99.90
18741;DHT22;9499;52.472;13.448;2023-03-01T13:11:41;12.70;99.90
18741;DHT22;9499;52.472;13.448;2023-03-01T13:17:33;12.70;99.90
18741;DHT22;9499;52.472;13.448;2023-03-01T13:20:00;12.60;99.90
18741;DHT22;9499;52.472;13.448;2023-03-01T13:22:29;12.40;99.90
18741;DHT22;9499;52.472;13.448;2023-03-01T13:25:02;12.20;99.90
18741;DHT22;9499;52.472;13.448;2023-03-01T13:27:29;12.10;99.90
18741;DHT22;9499;52.472;13.448;2023-03-01T13:29:57;12.10;99.90
18741;DHT22;9499;52.472;13.448;2023-03-01T13:32:30;12.30;99.90
18741;DHT22;9499;52.472;13.448;2023-03-01T13:34:59;12.50;99.90
18741;DHT22;9499;52.472;13.448;2023-03-01T13:37:34;12.00;99.90
18741;DHT22;9499;52.472;13.448;2023-03-01T13:42:48;11.80;99.90
18741;DHT22;9499;52.472;13.448;2023-03-01T13:45:21;12.20;99.90
18741;DHT22;9499;52.472;13.448;2023-03-01T13:47:54;12.30;99.90
18741;DHT22;9499;52.472;13.448;2023-03-01T13:50:25;12.40;99.90
18741;DHT22;9499;52.472;13.448;2023-03-01T13:52:55;12.50;99.90
18741;DHT22;9499;52.472;13.448;2023-03-01T13:55:30;12.80;99.90
18741;DHT22;9499;52.472;13.448;2023-03-01T13:58:00;13.00;99.90
18741;DHT22;9499;52.472;13.448;2023-03-01T14:00:30;13.00;99.90
18741;DHT22;9499;52.472;13.448;2023-03-01T14:03:04;12.80;99.90
18741;DHT22;9499;52.472;13.448;2023-03-01T14:05:33;12.80;99.90
18741;DHT22;9499;52.472;13.448;2023-03-01T14:08:01;12.80;99.90
18741;DHT22;9499;52.472;13.448;2023-03-01T14:10:35;13.10;99.90
18741;DHT22;9499;52.472;13.448;2023-03-01T14:13:10;13.10;99.90
18741;DHT22;9499;52.472;13.448;2023-03-01T14:16:02;13.10;99.90
18741;DHT22;9499;52.472;13.448;2023-03-01T14:18:35;13.10;99.90
18741;DHT22;9499;52.472;13.448;2023-03-01T14:21:07;13.10;99.90
18741;DHT22;9499;52.472;13.448;2023-03-01T14:23:34;12.90;99.90
18741;DHT22;9499;52.472;13.448;2023-03-01T14:26:02;13.00;99.90
18741;DHT22;9499;52.472;13.448;2023-03-01T14:28:30;13.20;99.90
18741;DHT22;9499;52.472;13.448;2023-03-01T14:31:00;13.30;96.60
18741;DHT22;9499;52.472;13.448;2023-03-01T14:33:28;13.30;98.20
18741;DHT22;9499;52.472;13.448;2023-03-01T14:35:59;13.30;99.90
18741;DHT22;9499;52.472;13.448;2023-03-01T14:38:32;12.90;99.90
18741;DHT22;9499;52.472;13.448;2023-03-01T14:41:03;12.70;99.90
18741;DHT22;9499;52.472;13.448;2023-03-01T14:43:30;12.50;99.90
18741;DHT22;9499;52.472;13.448;2023-03-01T14:45:57;12.20;95.70
18741;DHT22;9499;52.472;13.448;2023-03-01T14:48:24;11.90;99.50
18741;DHT22;9499;52.472;13.448;2023-03-01T14:50:53;11.60;99.30
18741;DHT22;9499;52.472;13.448;2023-03-01T14:53:24;11.30;99.90
18741;DHT22;9499;52.472;13.448;2023-03-01T14:55:53;11.10;99.90
18741;DHT22;9499;52.472;13.448;2023-03-01T14:58:21;10.90;99.90
18741;DHT22;9499;52.472;13.448;2023-03-01T15:00:51;10.80;99.90
18741;DHT22;9499;52.472;13.448;2023-03-01T15:03:24;10.60;99.90
18741;DHT22;9499;52.472;13.448;2023-03-01T15:05:52;10.40;97.40
18741;DHT22;9499;52.472;13.448;2023-03-01T15:08:23;10.20;99.90
18741;DHT22;9499;52.472;13.448;2023-03-01T15:10:58;10.00;99.90
18741;DHT22;9499;52.472;13.448;2023-03-01T15:13:28;9.90;99.90
18741;DHT22;9499;52.472;13.448;2023-03-01T15:16:02;9.70;99.90
18741;DHT22;9499;52.472;13.448;2023-03-01T15:18:29;9.60;99.90
18741;DHT22;9499;52.472;13.448;2023-03-01T15:21:06;9.60;99.90
18741;DHT22;9499;52.472;13.448;2023-03-01T15:23:36;9.60;99.90
18741;DHT22;9499;52.472;13.448;2023-03-01T15:26:03;9.60;99.90
18741;DHT22;9499;52.472;13.448;2023-03-01T15:28:32;9.50;99.90
18741;DHT22;9499;52.472;13.448;2023-03-01T15:31:03;9.40;99.90
18741;DHT22;9499;52.472;13.448;2023-03-01T15:33:33;9.40;99.90
18741;DHT22;9499;52.472;13.448;2023-03-01T15:36:01;9.30;99.90
18741;DHT22;9499;52.472;13.448;2023-03-01T15:38:31;9.30;99.90
18741;DHT22;9499;52.472;13.448;2023-03-01T15:41:00;9.30;99.90
18741;DHT22;9499;52.472;13.448;2023-03-01T15:43:38;9.30;99.90
18741;DHT22;9499;52.472;13.448;2023-03-01T15:46:05;9.30;99.90
18741;DHT22;9499;52.472;13.448;2023-03-01T15:48:38;9.20;99.90
18741;DHT22;9499;52.472;13.448;2023-03-01T15:51:12;9.10;99.90
18741;DHT22;9499;52.472;13.448;2023-03-01T15:53:39;9.00;99.90
18741;DHT22;9499;52.472;13.448;2023-03-01T15:56:07;9.00;99.90
18741;DHT22;9499;52.472;13.448;2023-03-01T15:58:33;8.90;99.90
18741;DHT22;9499;52.472;13.448;2023-03-01T16:01:00;8.90;99.90
18741;DHT22;9499;52.472;13.448;2023-03-01T16:03:27;8.90;99.90
18741;DHT22;9499;52.472;13.448;2023-03-01T16:05:53;8.90;99.90
18741;DHT22;9499;52.472;13.448;2023-03-01T16:08:20;8.90;99.90
18741;DHT22;9499;52.472;13.448;2023-03-01T16:10:46;8.80;99.90
18741;DHT22;9499;52.472;13.448;2023-03-01T16:13:16;8.80;99.90
18741;DHT22;9499;52.472;13.448;2023-03-01T16:15:43;8.70;99.90